Map

Track Data

SID SEASON NUMBER BASIN SUBBASIN NAME ISO_TIME NATURE LAT LON WMO_WIND WMO_PRES WMO_AGENCY TRACK_TYPE DIST2LAND LANDFALL IFLAG USA_AGENCY USA_ATCF_ID USA_LAT USA_LON USA_RECORD USA_STATUS USA_WIND USA_PRES USA_SSHS USA_R34_NE USA_R34_SE USA_R34_SW USA_R34_NW USA_R50_NE USA_R50_SE USA_R50_SW USA_R50_NW USA_R64_NE USA_R64_SE USA_R64_SW USA_R64_NW USA_POCI USA_ROCI USA_RMW USA_EYE TOKYO_LAT TOKYO_LON TOKYO_GRADE TOKYO_WIND TOKYO_PRES TOKYO_R50_DIR TOKYO_R50_LONG TOKYO_R50_SHORT TOKYO_R30_DIR TOKYO_R30_LONG TOKYO_R30_SHORT TOKYO_LAND CMA_LAT CMA_LON CMA_CAT CMA_WIND CMA_PRES HKO_LAT HKO_LON HKO_CAT HKO_WIND HKO_PRES NEWDELHI_LAT NEWDELHI_LON NEWDELHI_GRADE NEWDELHI_WIND NEWDELHI_PRES NEWDELHI_CI NEWDELHI_DP NEWDELHI_POCI REUNION_LAT REUNION_LON REUNION_TYPE REUNION_WIND REUNION_PRES REUNION_TNUM REUNION_CI REUNION_RMW REUNION_R34_NE REUNION_R34_SE REUNION_R34_SW REUNION_R34_NW REUNION_R50_NE REUNION_R50_SE REUNION_R50_SW REUNION_R50_NW REUNION_R64_NE REUNION_R64_SE REUNION_R64_SW REUNION_R64_NW BOM_LAT BOM_LON BOM_TYPE BOM_WIND BOM_PRES BOM_TNUM BOM_CI BOM_RMW BOM_R34_NE BOM_R34_SE BOM_R34_SW BOM_R34_NW BOM_R50_NE BOM_R50_SE BOM_R50_SW BOM_R50_NW BOM_R64_NE BOM_R64_SE BOM_R64_SW BOM_R64_NW BOM_ROCI BOM_POCI BOM_EYE BOM_POS_METHOD BOM_PRES_METHOD NADI_LAT NADI_LON NADI_CAT NADI_WIND NADI_PRES WELLINGTON_LAT WELLINGTON_LON WELLINGTON_WIND WELLINGTON_PRES DS824_LAT DS824_LON DS824_STAGE DS824_WIND DS824_PRES TD9636_LAT TD9636_LON TD9636_STAGE TD9636_WIND TD9636_PRES TD9635_LAT TD9635_LON TD9635_WIND TD9635_PRES TD9635_ROCI NEUMANN_LAT NEUMANN_LON NEUMANN_CLASS NEUMANN_WIND NEUMANN_PRES MLC_LAT MLC_LON MLC_CLASS MLC_WIND MLC_PRES USA_GUST BOM_GUST BOM_GUST_PER REUNION_GUST REUNION_GUST_PER USA_SEAHGT USA_SEARAD_NE USA_SEARAD_SE USA_SEARAD_SW USA_SEARAD_NW STORM_SPEED STORM_DIR
1968261N12336 1968 92 NA NA NOT_NAMED 1968-09-17 00:00:00 TS 12.0000 -23.9000 25 hurdat_atl main 755 755 O_____________ hurdat_atl AL101968 12.0000 -23.9000 TD 25 -1 6 280
1968261N12336 1968 92 NA NA NOT_NAMED 1968-09-17 03:00:00 TS 12.0526 -24.2049 main 781 781 P_____________ AL101968 12.0526 -24.2049 TD 25 -1 6 280
1968261N12336 1968 92 NA NA NOT_NAMED 1968-09-17 06:00:00 TS 12.1000 -24.5000 25 hurdat_atl main 811 811 O_____________ hurdat_atl AL101968 12.1000 -24.5000 TD 25 -1 6 279
1968261N12336 1968 92 NA NA NOT_NAMED 1968-09-17 09:00:00 TS 12.1423 -24.7976 main 841 841 P_____________ AL101968 12.1423 -24.7976 TD 25 -1 7 278
1968261N12336 1968 92 NA NA NOT_NAMED 1968-09-17 12:00:00 TS 12.2000 -25.2000 25 hurdat_atl main 878 878 O_____________ hurdat_atl AL101968 12.2000 -25.2000 TD 25 -1 10 278
1968261N12336 1968 92 NA NA NOT_NAMED 1968-09-17 15:00:00 TS 12.2699 -25.7827 main 937 937 P_____________ AL101968 12.2699 -25.7827 TD 25 -1 13 279
1968261N12336 1968 92 NA NA NOT_NAMED 1968-09-17 18:00:00 TS 12.4000 -26.5000 25 hurdat_atl main 1006 1006 O_____________ hurdat_atl AL101968 12.4000 -26.5000 TD 25 -1 16 284
1968261N12336 1968 92 NA NA NOT_NAMED 1968-09-17 21:00:00 TS 12.6580 -27.3670 main 1093 1093 P_____________ AL101968 12.6580 -27.3670 TD 25 -1 16 288
1968261N12336 1968 92 NA NA NOT_NAMED 1968-09-18 00:00:00 TS 12.9000 -28.1000 25 hurdat_atl main 1162 1162 O_____________ hurdat_atl AL101968 12.9000 -28.1000 TD 25 -1 10 289
1968261N12336 1968 92 NA NA NOT_NAMED 1968-09-18 03:00:00 TS 12.9794 -28.3378 main 1181 1181 P_____________ AL101968 12.9794 -28.3378 TD 25 -1 4 284
1968261N12336 1968 92 NA NA NOT_NAMED 1968-09-18 06:00:00 TS 13.0000 -28.5000 25 hurdat_atl main 1203 1203 O_____________ hurdat_atl AL101968 13.0000 -28.5000 TD 25 -1 7 275
1968261N12336 1968 92 NA NA NOT_NAMED 1968-09-18 09:00:00 TS 13.0428 -29.0275 main 1256 1256 P_____________ AL101968 13.0428 -29.0275 TD 25 -1 11 275
1968261N12336 1968 92 NA NA NOT_NAMED 1968-09-18 12:00:00 TS 13.1000 -29.6000 25 hurdat_atl main 1318 1318 O_____________ hurdat_atl AL101968 13.1000 -29.6000 TD 25 -1 9 278
1968261N12336 1968 92 NA NA NOT_NAMED 1968-09-18 15:00:00 TS 13.1697 -29.9652 main 1359 1359 P_____________ AL101968 13.1697 -29.9652 TD 25 -1 7 286
1968261N12336 1968 92 NA NA NOT_NAMED 1968-09-18 18:00:00 TS 13.3000 -30.3000 25 hurdat_atl main 1390 1390 O_____________ hurdat_atl AL101968 13.3000 -30.3000 TD 25 -1 8 298
1968261N12336 1968 92 NA NA NOT_NAMED 1968-09-18 21:00:00 TS 13.5346 -30.6751 main 1430 1429 P_____________ AL101968 13.5346 -30.6751 TD 25 -1 10 300
1968261N12336 1968 92 NA NA NOT_NAMED 1968-09-19 00:00:00 TS 13.8000 -31.2000 25 hurdat_atl main 1480 1480 O_____________ hurdat_atl AL101968 13.8000 -31.2000 TD 25 -1 14 289
1968261N12336 1968 92 NA NA NOT_NAMED 1968-09-19 03:00:00 TS 13.9857 -32.0426 main 1564 1564 P_____________ AL101968 13.9857 -32.0426 TD 25 -1 17 284
1968261N12336 1968 92 NA NA NOT_NAMED 1968-09-19 06:00:00 TS 14.2000 -32.9000 25 hurdat_atl main 1659 1659 O_____________ hurdat_atl AL101968 14.2000 -32.9000 TD 25 -1 15 292
1968261N12336 1968 92 NA NA NOT_NAMED 1968-09-19 09:00:00 TS 14.5420 -33.4600 main 1722 1721 P_____________ AL101968 14.5420 -33.4600 TD 25 -1 12 306
1968261N12336 1968 92 NA NA NOT_NAMED 1968-09-19 12:00:00 TS 14.9000 -33.9000 25 hurdat_atl main 1763 1763 O_____________ hurdat_atl AL101968 14.9000 -33.9000 TD 25 -1 11 304
1968261N12336 1968 92 NA NA NOT_NAMED 1968-09-19 15:00:00 TS 15.1500 -34.3877 main 1816 1816 P_____________ AL101968 15.1500 -34.3877 TD 25 -1 10 300
1968261N12336 1968 92 NA NA NOT_NAMED 1968-09-19 18:00:00 TS 15.4000 -34.8000 25 hurdat_atl main 1859 1859 O_____________ hurdat_atl AL101968 15.4000 -34.8000 TD 25 -1 8 314
1968261N12336 1968 92 NA NA NOT_NAMED 1968-09-19 21:00:00 TS 15.7344 -35.0056 main 1881 1881 P_____________ AL101968 15.7344 -35.0056 TD 25 -1 9 325
1968261N12336 1968 92 NA NA NOT_NAMED 1968-09-20 00:00:00 TS 16.1000 -35.3000 25 hurdat_atl main 1914 1914 O_____________ hurdat_atl AL101968 16.1000 -35.3000 TD 25 -1 12 308
1968261N12336 1968 92 NA NA NOT_NAMED 1968-09-20 03:00:00 TS 16.4806 -35.9969 main 1991 1991 P_____________ AL101968 16.4806 -35.9969 TD 25 -1 16 296
1968261N12336 1968 92 NA NA NOT_NAMED 1968-09-20 06:00:00 TS 16.8000 -36.8000 25 hurdat_atl main 2078 2071 O_____________ hurdat_atl AL101968 16.8000 -36.8000 TD 25 -1 14 288
1968261N12336 1968 92 NA NA NOT_NAMED 1968-09-20 09:00:00 TS 16.9347 -37.4309 main 2071 2039 P_____________ AL101968 16.9347 -37.4309 TD 25 -1 12 285
1968261N12336 1968 92 NA NA NOT_NAMED 1968-09-20 12:00:00 TS 17.1000 -38.0000 25 hurdat_atl main 2039 2024 O_____________ hurdat_atl AL101968 17.1000 -38.0000 TD 25 -1 12 298
1968261N12336 1968 92 NA NA NOT_NAMED 1968-09-20 15:00:00 TS 17.4972 -38.5426 main 2032 2025 P_____________ AL101968 17.4972 -38.5426 TD 25 -1 14 311
1968261N12336 1968 92 NA NA NOT_NAMED 1968-09-20 18:00:00 TS 18.0000 -39.1000 25 hurdat_atl main 2029 2021 O_____________ hurdat_atl AL101968 18.0000 -39.1000 TD 25 -1 15 311
1968261N12336 1968 92 NA NA NOT_NAMED 1968-09-20 21:00:00 TS 18.4926 -39.7575 main 2023 2020 P_____________ AL101968 18.4926 -39.7575 TD 25 -1 16 309
1968261N12336 1968 92 NA NA NOT_NAMED 1968-09-21 00:00:00 TS 19.0000 -40.4000 25 hurdat_atl main 2027 2024 O_____________ hurdat_atl AL101968 19.0000 -40.4000 TD 25 -1 15 312
1968261N12336 1968 92 NA NA NOT_NAMED 1968-09-21 03:00:00 TS 19.4998 -40.9379 main 2042 2035 P_____________ AL101968 19.4998 -40.9379 TD 25 -1 14 317
1968261N12336 1968 92 NA NA NOT_NAMED 1968-09-21 06:00:00 TS 20.0000 -41.4000 25 hurdat_atl main 2053 2053 O_____________ hurdat_atl AL101968 20.0000 -41.4000 TD 25 -1 13 321
1968261N12336 1968 92 NA NA NOT_NAMED 1968-09-21 09:00:00 TS 20.5002 -41.8120 main 2072 2072 P_____________ AL101968 20.5002 -41.8120 TD 25 -1 13 323
1968261N12336 1968 92 NA NA NOT_NAMED 1968-09-21 12:00:00 TS 21.0000 -42.2000 25 hurdat_atl main 2095 O_____________ hurdat_atl AL101968 21.0000 -42.2000 TD 25 -1 12 324

About IBTrACS Database

This database is a web-friendly format of International Best Track Archive for Climate Stewardship (IBTrACS), a global best track data archive curated by NOAA dating back to 1842.

Updated: 2021-10-08